Time;durP1;ratioP1;P1;durP2;ratioP2;P2;SDS_P1;SDS_P2;PMS_P1;PMS_P2;Temp;Humidity;BMP_temperature;BMP_pressure;BME280_temperature;BME280_humidity;BME280_pressure;Samples;Min_cycle;Max_cycle;Signal;HPM_P1;HPM_P2
2023/05/29 00:00:01;;;;;;;11.10;5.88;;;;;;;10.73;100.00;95784.09;1026704;28;20019;-73
2023/05/29 00:00:32;;;;;;;7.55;5.00;;;;;;;10.70;100.00;95777.56;1030461;28;20064;-72
2023/05/29 00:01:03;;;;;;;9.02;5.32;;;;;;;10.70;100.00;95779.41;1030043;28;20019;-73
2023/05/29 00:01:34;;;;;;;12.15;5.53;;;;;;;10.69;100.00;95783.84;1029991;28;20276;-71
2023/05/29 00:02:04;;;;;;;11.68;5.90;;;;;;;10.70;100.00;95779.41;1029127;28;20027;-72
2023/05/29 00:02:35;;;;;;;10.35;5.65;;;;;;;10.68;100.00;95781.47;1034577;28;20265;-72
2023/05/29 00:03:05;;;;;;;8.00;5.10;;;;;;;10.68;100.00;95781.47;1030532;28;20029;-72
2023/05/29 00:03:36;;;;;;;9.68;6.03;;;;;;;10.68;100.00;95778.84;1030670;28;20022;-73
2023/05/29 00:04:06;;;;;;;10.95;5.72;;;;;;;10.66;100.00;95781.72;1038375;28;20708;-73
2023/05/29 00:04:37;;;;;;;14.70;6.53;;;;;;;10.67;100.00;95779.91;1038748;28;20453;-73
2023/05/29 00:05:07;;;;;;;11.10;5.95;;;;;;;10.67;100.00;95779.91;1038656;28;20029;-73
2023/05/29 00:05:38;;;;;;;12.75;6.68;;;;;;;10.66;100.00;95783.56;1038592;28;20023;-73
2023/05/29 00:06:08;;;;;;;10.00;5.95;;;;;;;10.66;100.00;95783.56;1034568;28;20360;-73
2023/05/29 00:06:39;;;;;;;11.55;5.85;;;;;;;10.50;100.00;95759.97;1034487;28;20068;-72
2023/05/29 00:07:10;;;;;;;10.95;6.35;;;;;;;10.64;100.00;95790.94;1041084;28;20024;-73
2023/05/29 00:07:40;;;;;;;14.10;6.35;;;;;;;10.62;100.00;95784.09;1038817;28;20665;-72
2023/05/29 00:08:11;;;;;;;14.38;6.13;;;;;;;10.62;100.00;95783.31;1038689;28;20268;-73
2023/05/29 00:08:42;;;;;;;12.73;6.63;;;;;;;10.59;100.00;95779.38;1030127;28;20026;-72
2023/05/29 00:09:12;;;;;;;12.32;5.97;;;;;;;10.58;100.00;95782.25;1026637;28;20023;-73
2023/05/29 00:09:43;;;;;;;13.98;6.60;;;;;;;10.57;100.00;95784.09;1026614;28;20061;-71
2023/05/29 00:10:13;;;;;;;13.52;5.70;;;;;;;10.56;100.00;95784.34;1026586;28;20030;-73
2023/05/29 00:10:43;;;;;;;11.32;6.28;;;;;;;10.54;100.00;95781.22;1030407;28;20030;-72
2023/05/29 00:11:14;;;;;;;10.60;6.22;;;;;;;10.54;100.00;95781.22;1029837;28;20382;-72
2023/05/29 00:11:50;;;;;;;11.13;6.07;;;;;;;10.53;100.00;95788.31;1030826;28;20030;-72
2023/05/29 00:12:21;;;;;;;12.45;6.38;;;;;;;10.42;100.00;95765.72;1033891;28;20523;-73
2023/05/29 00:12:52;;;;;;;10.23;5.50;;;;;;;10.51;100.00;95786.97;1034439;28;20273;-72
2023/05/29 00:13:22;;;;;;;10.60;5.75;;;;;;;10.42;100.00;95773.56;1034490;28;20257;-73
2023/05/29 00:13:53;;;;;;;11.60;5.97;;;;;;;10.50;100.00;95783.56;1030333;28;20025;-73
2023/05/29 00:14:23;;;;;;;10.40;6.13;;;;;;;10.49;100.00;95781.97;1030539;28;20489;-73
2023/05/29 00:14:54;;;;;;;11.10;6.28;;;;;;;10.49;100.00;95784.59;1026397;28;20018;-72
2023/05/29 00:15:24;;;;;;;12.23;6.63;;;;;;;10.49;100.00;95783.81;1026949;28;20081;-72
2023/05/29 00:15:56;;;;;;;13.07;5.80;;;;;;;10.47;100.00;95780.69;1034538;28;20025;-72
2023/05/29 00:16:26;;;;;;;13.52;5.85;;;;;;;10.47;100.00;95786.72;1030697;28;20030;-73
2023/05/29 00:16:57;;;;;;;9.50;5.40;;;;;;;10.46;100.00;95785.16;1034367;28;20336;-72
2023/05/29 00:17:27;;;;;;;11.20;6.20;;;;;;;10.46;100.00;95784.34;1034408;28;20033;-72
2023/05/29 00:17:58;;;;;;;15.88;6.38;;;;;;;10.43;100.00;95780.41;1026806;28;20074;-73
2023/05/29 00:18:29;;;;;;;12.68;6.35;;;;;;;10.46;100.00;95779.91;1030664;28;20037;-72
2023/05/29 00:18:59;;;;;;;13.63;6.13;;;;;;;10.48;100.00;95783.03;1034370;28;20037;-73
2023/05/29 00:19:29;;;;;;;17.48;6.80;;;;;;;10.45;100.00;95783.56;1034534;28;20107;-72
2023/05/29 00:20:01;;;;;;;10.90;5.30;;;;;;;10.44;100.00;95781.97;1030343;28;20030;-73
2023/05/29 00:20:33;;;;;;;14.43;5.88;;;;;;;10.41;100.00;95782.50;1030274;28;20559;-73
2023/05/29 00:21:05;;;;;;;12.40;6.03;;;;;;;10.41;100.00;95785.13;1027123;28;20951;-73
2023/05/29 00:21:35;;;;;;;11.70;6.22;;;;;;;10.38;100.00;95783.81;1035621;28;20429;-72
2023/05/29 00:22:06;;;;;;;10.40;5.55;;;;;;;10.38;100.00;95781.19;1041526;28;20275;-72
2023/05/29 00:22:37;;;;;;;13.23;4.90;;;;;;;10.37;100.00;95782.22;1034574;28;20396;-73
2023/05/29 00:23:07;;;;;;;8.93;5.75;;;;;;;10.37;100.00;95779.63;1038281;28;20021;-71
2023/05/29 00:23:37;;;;;;;11.73;6.88;;;;;;;10.36;100.00;95779.84;1038598;28;20029;-72
2023/05/29 00:24:08;;;;;;;10.48;5.75;;;;;;;10.33;100.00;95785.66;1034566;28;20025;-72
2023/05/29 00:24:38;;;;;;;12.50;5.70;;;;;;;10.29;100.00;95774.84;1038304;28;20029;-73
2023/05/29 00:25:09;;;;;;;11.30;5.60;;;;;;;10.27;100.00;95776.97;1026376;28;20038;-72
2023/05/29 00:25:42;;;;;;;9.25;5.55;;;;;;;10.32;100.00;95786.69;1030593;28;20022;-72
2023/05/29 00:26:16;;;;;;;9.80;6.07;;;;;;;10.30;100.00;95783.53;1034437;28;20034;-72
2023/05/29 00:26:47;;;;;;;12.80;5.95;;;;;;;10.28;100.00;95789.03;1032727;28;20272;-73
2023/05/29 00:27:17;;;;;;;12.05;6.32;;;;;;;10.28;100.00;95781.16;1034210;28;20264;-72
2023/05/29 00:27:47;;;;;;;12.25;5.88;;;;;;;10.28;100.00;95788.25;1030438;28;20052;-72
2023/05/29 00:28:18;;;;;;;10.40;5.78;;;;;;;10.27;100.00;95778.81;1030542;28;20023;-73
2023/05/29 00:28:48;;;;;;;12.18;6.10;;;;;;;10.25;100.00;95786.09;1030491;28;20041;-72
2023/05/29 00:29:21;;;;;;;11.50;6.55;;;;;;;10.26;100.00;95783.28;1030320;28;20030;-72
2023/05/29 00:29:51;;;;;;;8.98;5.25;;;;;;;10.26;100.00;95775.41;1034104;28;20029;-72
2023/05/29 00:30:21;;;;;;;10.95;5.90;;;;;;;10.25;100.00;95778.25;1034868;28;20820;-72
2023/05/29 00:30:52;;;;;;;11.68;5.85;;;;;;;10.28;100.00;95788.25;1034607;28;20705;-73
2023/05/29 00:31:24;;;;;;;10.20;5.45;;;;;;;10.27;100.00;95789.28;1029504;28;20053;-73
2023/05/29 00:31:54;;;;;;;13.15;5.65;;;;;;;10.27;100.00;95786.69;1030504;28;20408;-72
2023/05/29 00:32:25;;;;;;;12.02;5.75;;;;;;;10.26;100.00;95777.22;1030844;28;20265;-72
2023/05/29 00:32:56;;;;;;;16.85;5.53;;;;;;;10.29;100.00;95779.31;1030591;28;20046;-72
2023/05/29 00:33:26;;;;;;;12.88;6.15;;;;;;;10.31;100.00;95787.72;1034406;28;20037;-73
2023/05/29 00:33:57;;;;;;;11.95;6.53;;;;;;;10.31;100.00;95785.88;1030280;28;20030;-72
2023/05/29 00:34:27;;;;;;;10.38;5.47;;;;;;;10.30;100.00;95789.56;1030558;28;20386;-72
2023/05/29 00:34:58;;;;;;;9.77;5.47;;;;;;;10.29;100.00;95785.34;1030777;28;20033;-74
2023/05/29 00:35:28;;;;;;;9.90;6.05;;;;;;;10.28;100.00;95788.25;1030310;28;20026;-72
2023/05/29 00:35:59;;;;;;;11.95;5.68;;;;;;;10.31;100.00;95787.72;1030335;28;20030;-74
2023/05/29 00:36:31;;;;;;;8.98;5.25;;;;;;;10.27;100.00;95789.28;1026225;28;20115;-72
2023/05/29 00:37:02;;;;;;;11.77;5.82;;;;;;;10.28;100.00;95785.63;1030415;28;20539;-72
2023/05/29 00:37:33;;;;;;;10.52;5.72;;;;;;;10.26;100.00;95783.28;1018733;29;20905;-73
2023/05/29 00:38:03;;;;;;;14.85;5.80;;;;;;;10.21;100.00;95771.94;1023545;28;20266;-72
2023/05/29 00:38:34;;;;;;;8.45;5.47;;;;;;;10.18;100.00;95772.47;1026038;28;20544;-72
2023/05/29 00:39:04;;;;;;;8.27;4.95;;;;;;;10.24;100.00;95787.16;1026448;28;20118;-72
2023/05/29 00:39:35;;;;;;;10.45;5.28;;;;;;;10.25;100.00;95786.09;1026273;28;20031;-73
2023/05/29 00:40:06;;;;;;;11.70;6.32;;;;;;;10.24;100.00;95785.31;1022237;28;20086;-72
2023/05/29 00:40:36;;;;;;;10.10;5.10;;;;;;;10.24;100.00;95787.94;1026350;28;20062;-72
2023/05/29 00:41:07;;;;;;;10.90;5.22;;;;;;;10.24;100.00;95784.53;1025978;28;20672;-74
2023/05/29 00:41:37;;;;;;;8.30;5.13;;;;;;;10.24;100.00;95787.16;1032266;28;20197;-72
2023/05/29 00:42:08;;;;;;;8.38;4.95;;;;;;;10.24;100.00;95787.16;1030744;28;20015;-73
2023/05/29 00:42:39;;;;;;;11.55;5.43;;;;;;;10.22;100.00;95784.78;1030518;28;20030;-71
2023/05/29 00:43:09;;;;;;;11.68;5.60;;;;;;;10.21;100.00;95785.84;1031314;28;20018;-72
2023/05/29 00:43:39;;;;;;;11.32;5.38;;;;;;;10.21;100.00;95788.47;1034603;28;20018;-72
2023/05/29 00:44:10;;;;;;;9.80;5.05;;;;;;;10.21;100.00;95787.69;1034335;28;20503;-73
2023/05/29 00:44:40;;;;;;;10.43;5.65;;;;;;;10.16;100.00;95780.59;1030503;28;20042;-73
2023/05/29 00:45:12;;;;;;;12.15;5.28;;;;;;;10.18;100.00;95780.31;1026421;28;20090;-72
2023/05/29 00:45:43;;;;;;;10.50;5.65;;;;;;;10.17;100.00;95782.16;1026628;28;20022;-73
2023/05/29 00:46:14;;;;;;;8.65;5.40;;;;;;;10.16;100.00;95785.84;1026724;28;20748;-73
2023/05/29 00:46:45;;;;;;;9.20;5.00;;;;;;;10.15;100.00;95782.41;1025249;28;20011;-72
2023/05/29 00:47:16;;;;;;;7.75;5.05;;;;;;;10.18;100.00;95785.56;1030429;28;20042;-72
2023/05/29 00:47:46;;;;;;;10.18;5.47;;;;;;;10.18;100.00;95777.69;1030433;28;20289;-72
2023/05/29 00:48:16;;;;;;;10.80;5.28;;;;;;;10.18;100.00;95781.09;1030653;28;20038;-72
2023/05/29 00:48:47;;;;;;;10.70;4.90;;;;;;;10.19;100.00;95784.50;1026350;28;20026;-72
2023/05/29 00:49:18;;;;;;;10.23;4.95;;;;;;;10.17;100.00;95784.00;1026380;28;20031;-72
2023/05/29 00:49:48;;;;;;;10.90;5.63;;;;;;;10.13;100.00;95776.66;1022578;28;20094;-72
2023/05/29 00:50:20;;;;;;;9.40;5.18;;;;;;;10.18;100.00;95781.09;1026253;28;20085;-73
2023/05/29 00:50:50;;;;;;;11.48;5.43;;;;;;;10.17;100.00;95776.13;1026161;28;20122;-73
2023/05/29 00:51:21;;;;;;;8.82;5.30;;;;;;;10.17;100.00;95781.38;1025714;28;20767;-72
2023/05/29 00:51:51;;;;;;;12.57;6.07;;;;;;;10.17;100.00;95778.75;1026507;28;20045;-73
2023/05/29 00:52:22;;;;;;;11.48;5.00;;;;;;;10.15;100.00;95779.78;1026409;28;20494;-72
2023/05/29 00:52:53;;;;;;;15.35;5.43;;;;;;;10.12;100.00;95782.13;1022279;29;20038;-73
2023/05/29 00:53:23;;;;;;;13.95;5.90;;;;;;;10.14;100.00;95778.22;1031482;28;20085;-73
2023/05/29 00:53:54;;;;;;;12.18;5.05;;;;;;;10.14;100.00;95774.81;1034384;28;20041;-73
2023/05/29 00:54:29;;;;;;;10.80;5.88;;;;;;;10.14;100.00;95775.59;1030292;28;20037;-72
2023/05/29 00:55:02;;;;;;;9.60;5.07;;;;;;;10.10;100.00;95766.69;1029163;28;20037;-73
2023/05/29 00:55:32;;;;;;;9.05;4.68;;;;;;;10.13;100.00;95776.66;1034102;28;20256;-72
2023/05/29 00:56:04;;;;;;;10.98;5.68;;;;;;;10.14;100.00;95778.22;1031370;28;20269;-72
2023/05/29 00:56:35;;;;;;;11.85;5.28;;;;;;;10.20;100.00;95775.63;1030342;28;20030;-74
2023/05/29 00:57:05;;;;;;;11.43;5.20;;;;;;;10.14;100.00;95767.72;1033632;28;20279;-73
2023/05/29 00:57:36;;;;;;;9.63;5.15;;;;;;;10.21;100.00;95769.31;1018528;29;20268;-71
2023/05/29 00:58:06;;;;;;;8.98;4.93;;;;;;;10.21;100.00;95772.72;1018246;29;20032;-72
2023/05/29 00:58:37;;;;;;;10.68;5.28;;;;;;;10.21;100.00;95772.72;1016134;29;20035;-73
2023/05/29 00:59:07;;;;;;;8.27;4.65;;;;;;;10.18;100.00;95777.69;1026315;28;20520;-73
2023/05/29 00:59:38;;;;;;;11.70;5.05;;;;;;;10.17;100.00;95776.13;1034444;28;20509;-72
2023/05/29 01:00:12;;;;;;;10.98;5.28;;;;;;;10.17;100.00;95781.38;1038273;28;20037;-72
2023/05/29 01:00:42;;;;;;;10.73;4.82;;;;;;;10.16;100.00;95772.72;1029633;28;20042;-72
2023/05/29 01:01:13;;;;;;;7.75;4.88;;;;;;;10.15;100.00;95782.41;1029085;28;20317;-73
2023/05/29 01:01:44;;;;;;;10.55;5.18;;;;;;;10.14;100.00;95778.22;1031014;28;20512;-73
2023/05/29 01:02:14;;;;;;;9.25;4.78;;;;;;;10.12;100.00;95775.06;1038253;28;20025;-72
2023/05/29 01:02:45;;;;;;;8.13;4.63;;;;;;;10.05;100.00;95769.28;1038241;28;20391;-72
2023/05/29 01:03:16;;;;;;;10.65;5.45;;;;;;;10.08;100.00;95779.25;1030244;28;20217;-72
2023/05/29 01:03:48;;;;;;;11.15;5.07;;;;;;;10.08;100.00;95779.25;1023755;28;20825;-72
2023/05/29 01:04:19;;;;;;;10.45;5.20;;;;;;;10.05;100.00;95774.50;1026802;28;20346;-71
2023/05/29 01:04:49;;;;;;;8.15;5.18;;;;;;;10.07;100.00;95782.91;1030727;28;20289;-73
2023/05/29 01:05:20;;;;;;;10.13;5.38;;;;;;;10.06;100.00;95781.34;1021120;29;20095;-73
2023/05/29 01:05:52;;;;;;;9.52;5.72;;;;;;;10.05;100.00;95785.00;1026348;28;20035;-73
2023/05/29 01:06:23;;;;;;;12.32;5.40;;;;;;;10.00;100.00;95776.34;1026351;28;20149;-72
2023/05/29 01:06:53;;;;;;;10.35;5.05;;;;;;;10.05;100.00;95786.84;1026852;28;20281;-72
2023/05/29 01:07:24;;;;;;;10.38;4.75;;;;;;;10.02;100.00;95782.88;1029932;28;20289;-72
2023/05/29 01:07:55;;;;;;;8.52;4.95;;;;;;;10.02;100.00;95780.28;1026418;28;20117;-73
2023/05/29 01:08:25;;;;;;;9.20;4.88;;;;;;;10.02;100.00;95784.72;1022497;28;20816;-73
2023/05/29 01:08:56;;;;;;;8.63;5.13;;;;;;;10.01;100.00;95789.19;1029152;28;20459;-73
2023/05/29 01:09:26;;;;;;;11.02;4.65;;;;;;;10.00;100.00;95786.84;1030296;28;20030;-73
2023/05/29 01:09:56;;;;;;;15.75;4.95;;;;;;;9.99;100.00;95791.25;1030351;28;20041;-71
2023/05/29 01:10:28;;;;;;;9.73;5.32;;;;;;;9.95;100.00;95784.97;1030268;28;20033;-72
2023/05/29 01:11:01;;;;;;;10.32;5.50;;;;;;;9.88;100.00;95768.69;1026188;28;20034;-71
2023/05/29 01:11:51;;;;;;;10.70;5.57;;;;;;;9.96;100.00;95789.19;1030063;28;20269;-72
2023/05/29 01:12:45;;;;;;;12.15;5.10;;;;;;;9.96;100.00;95791.81;1026929;28;20535;-72
2023/05/29 01:13:21;;;;;;;8.77;4.53;;;;;;;9.98;100.00;95787.06;1027677;28;20656;-72
2023/05/29 01:13:52;;;;;;;13.18;5.20;;;;;;;9.99;100.00;95791.25;1026076;28;20376;-73
2023/05/29 01:14:33;;;;;;;9.32;4.95;;;;;;;10.07;100.00;95784.75;1026234;28;20261;-72
2023/05/29 01:15:25;;;;;;;8.63;4.75;;;;;;;10.11;100.00;95786.59;1030162;28;20066;-72
2023/05/29 01:16:03;;;;;;;10.18;4.55;;;;;;;10.11;100.00;95780.56;1030250;28;20337;-72
2023/05/29 01:16:41;;;;;;;10.52;5.15;;;;;;;10.28;100.00;95783.00;1026144;28;20258;-72
2023/05/29 01:17:37;;;;;;;9.88;4.75;;;;;;;10.31;100.00;95785.88;1026062;28;20270;-72
2023/05/29 01:18:31;;;;;;;12.07;4.50;;;;;;;10.53;100.00;95780.44;1018631;29;20270;-72
2023/05/29 01:19:24;;;;;;;8.25;4.45;;;;;;;10.54;100.00;95782.00;1020801;29;20275;-73
2023/05/29 01:20:26;;;;;;;8.77;4.80;;;;;;;10.57;100.00;95784.09;1030555;28;20281;-72
2023/05/29 01:21:00;;;;;;;9.23;4.25;;;;;;;10.68;100.00;95784.09;1033624;28;20288;-72
2023/05/29 01:21:49;;;;;;;9.30;4.25;;;;;;;10.75;100.00;95784.63;1036722;28;20272;-72
2023/05/29 01:22:44;;;;;;;11.32;5.10;;;;;;;10.75;100.00;95782.00;1034242;28;20344;-71
2023/05/29 01:23:36;;;;;;;10.20;4.72;;;;;;;10.77;100.00;95785.19;1034359;28;20261;-73
2023/05/29 01:24:34;;;;;;;9.85;4.63;;;;;;;10.76;100.00;95780.94;1034285;28;20273;-73
2023/05/29 01:25:12;;;;;;;8.98;4.60;;;;;;;10.78;100.00;95786.75;1034289;28;20315;-72
2023/05/29 01:26:01;;;;;;;12.18;5.07;;;;;;;10.74;100.00;95778.59;1030181;28;20357;-71
2023/05/29 01:26:42;;;;;;;11.00;4.55;;;;;;;10.68;100.00;95777.03;1036464;28;20272;-72
2023/05/29 01:27:12;;;;;;;8.40;4.50;;;;;;;10.71;100.00;95781.75;1034225;28;20322;-72
2023/05/29 01:27:43;;;;;;;8.98;4.63;;;;;;;10.71;100.00;95780.97;1030195;28;20786;-72
2023/05/29 01:28:13;;;;;;;12.93;4.57;;;;;;;10.66;100.00;95781.72;1028466;28;20472;-72
2023/05/29 01:28:47;;;;;;;9.02;4.53;;;;;;;10.64;100.00;95783.06;1034409;28;20021;-73
2023/05/29 01:29:20;;;;;;;9.02;4.68;;;;;;;10.61;100.00;95779.91;1022279;29;20605;-73
2023/05/29 01:29:50;;;;;;;10.98;4.93;;;;;;;10.58;100.00;95777.78;1032552;28;20315;-73
2023/05/29 01:30:21;;;;;;;9.75;4.78;;;;;;;10.56;100.00;95781.72;1029350;28;20790;-73
2023/05/29 01:30:51;;;;;;;9.60;4.95;;;;;;;10.55;100.00;95783.56;1022669;28;20061;-73
2023/05/29 01:31:23;;;;;;;11.45;4.95;;;;;;;10.52;100.00;95775.44;1019524;28;20023;-72
2023/05/29 01:31:54;;;;;;;10.20;4.60;;;;;;;10.51;100.00;95779.91;1026084;28;20428;-72
2023/05/29 01:32:25;;;;;;;7.78;4.72;;;;;;;10.42;100.00;95770.16;1026116;28;20278;-72
2023/05/29 01:32:56;;;;;;;11.63;5.07;;;;;;;10.46;100.00;95782.53;1022134;28;20679;-73
2023/05/29 01:33:27;;;;;;;9.38;4.97;;;;;;;10.45;100.00;95782.75;1018420;29;20255;-73
2023/05/29 01:33:59;;;;;;;7.68;4.32;;;;;;;10.42;100.00;95784.06;1018067;29;20087;-73
2023/05/29 01:34:29;;;;;;;8.23;4.72;;;;;;;10.40;100.00;95775.69;1018895;28;20354;-72
2023/05/29 01:35:00;;;;;;;8.10;4.95;;;;;;;10.40;100.00;95780.16;1030209;28;20265;-72
2023/05/29 01:35:31;;;;;;;9.50;4.82;;;;;;;10.32;100.00;95768.31;1034194;28;20056;-73
2023/05/29 01:36:01;;;;;;;7.07;4.20;;;;;;;10.37;100.00;95776.22;1030222;28;20037;-73
2023/05/29 01:36:32;;;;;;;8.23;4.45;;;;;;;10.34;100.00;95784.59;1032153;28;20023;-72
2023/05/29 01:37:03;;;;;;;7.50;4.50;;;;;;;10.34;100.00;95779.34;1030354;28;20069;-72
2023/05/29 01:37:33;;;;;;;8.85;4.43;;;;;;;10.32;100.00;95778.81;1030619;28;20695;-72
2023/05/29 01:38:04;;;;;;;7.78;4.10;;;;;;;10.30;100.00;95781.69;1035011;28;20037;-73
2023/05/29 01:38:35;;;;;;;8.13;4.50;;;;;;;10.31;100.00;95782.47;1038431;28;20495;-73
2023/05/29 01:39:05;;;;;;;8.65;4.57;;;;;;;10.34;100.00;95779.34;1038311;28;20021;-73
2023/05/29 01:39:36;;;;;;;10.65;4.95;;;;;;;10.28;100.00;95765.41;1030247;28;20022;-72
2023/05/29 01:40:07;;;;;;;13.68;5.30;;;;;;;10.32;100.00;95781.44;1029902;28;20022;-71
2023/05/29 01:40:37;;;;;;;6.22;4.15;;;;;;;10.31;100.00;95782.47;1030271;28;20507;-73
2023/05/29 01:41:08;;;;;;;9.70;4.32;;;;;;;10.32;100.00;95784.06;1025955;28;20266;-73
2023/05/29 01:41:38;;;;;;;16.58;4.88;;;;;;;10.32;100.00;95773.56;1034068;28;20113;-72
2023/05/29 01:42:09;;;;;;;9.18;4.35;;;;;;;10.30;100.00;95776.44;1030065;28;20101;-73
2023/05/29 01:42:39;;;;;;;7.63;4.40;;;;;;;10.29;100.00;95780.09;1030481;28;20464;-72
2023/05/29 01:43:10;;;;;;;9.38;5.57;;;;;;;10.29;100.00;95774.84;1030200;28;20022;-73
2023/05/29 01:43:40;;;;;;;8.27;4.53;;;;;;;10.27;100.00;95776.19;1026332;28;20022;-70
2023/05/29 01:44:12;;;;;;;12.50;4.80;;;;;;;10.13;100.00;95754.88;1034175;28;20673;-72
2023/05/29 01:44:42;;;;;;;7.80;4.75;;;;;;;10.28;100.00;95772.50;1030436;28;20018;-71
2023/05/29 01:45:13;;;;;;;7.55;4.18;;;;;;;10.28;100.00;95768.03;1026216;28;20668;-70
2023/05/29 01:45:43;;;;;;;14.20;5.05;;;;;;;10.26;100.00;95772.78;1022327;29;20015;-72
2023/05/29 01:46:14;;;;;;;8.45;4.80;;;;;;;10.29;100.00;95776.69;1026020;28;20022;-73
2023/05/29 01:46:45;;;;;;;8.05;4.78;;;;;;;10.28;100.00;95778.53;1023817;28;20023;-72
2023/05/29 01:47:16;;;;;;;7.72;4.57;;;;;;;10.29;100.00;95774.06;1022133;28;20496;-72
2023/05/29 01:47:46;;;;;;;7.07;4.35;;;;;;;10.27;100.00;95765.69;1026350;28;20286;-73
2023/05/29 01:48:17;;;;;;;10.98;4.63;;;;;;;10.34;100.00;95772.25;1025388;28;20373;-72
2023/05/29 01:48:47;;;;;;;8.90;4.35;;;;;;;10.33;100.00;95769.91;1026441;28;20034;-73
2023/05/29 01:49:18;;;;;;;8.15;4.55;;;;;;;10.33;100.00;95772.53;1026182;28;20031;-72
2023/05/29 01:49:48;;;;;;;11.32;4.72;;;;;;;10.35;100.00;95771.19;1022426;28;20519;-72
2023/05/29 01:50:19;;;;;;;9.75;5.00;;;;;;;10.37;100.00;95770.97;1025822;28;20031;-72
2023/05/29 01:50:49;;;;;;;7.75;4.35;;;;;;;10.36;100.00;95769.38;1034183;28;20480;-72
2023/05/29 01:51:20;;;;;;;9.35;4.70;;;;;;;10.34;100.00;95763.59;1029450;28;20057;-72
2023/05/29 01:51:50;;;;;;;8.57;4.50;;;;;;;10.40;100.00;95769.66;1036605;28;20076;-72
2023/05/29 01:52:21;;;;;;;9.32;4.85;;;;;;;10.33;100.00;95764.66;1029995;28;20279;-73
2023/05/29 01:52:51;;;;;;;7.47;4.07;;;;;;;10.35;100.00;95767.78;1030143;28;20322;-73
2023/05/29 01:53:22;;;;;;;7.30;4.55;;;;;;;10.40;100.00;95780.94;1030944;28;20571;-72
2023/05/29 01:53:53;;;;;;;9.93;4.28;;;;;;;10.40;100.00;95770.44;1030148;28;20084;-72
2023/05/29 01:54:23;;;;;;;12.65;4.82;;;;;;;10.47;100.00;95772.81;1030201;28;20253;-72
2023/05/29 01:54:54;;;;;;;8.65;4.38;;;;;;;10.46;100.00;95774.66;1030054;28;20480;-72
2023/05/29 01:55:24;;;;;;;7.53;4.05;;;;;;;10.46;100.00;95777.28;1018370;29;20045;-72
2023/05/29 01:55:55;;;;;;;9.57;4.45;;;;;;;10.45;100.00;95772.28;1018200;29;20043;-72
2023/05/29 01:56:27;;;;;;;9.52;4.38;;;;;;;10.47;100.00;95773.59;1022231;29;20034;-72
2023/05/29 01:56:57;;;;;;;7.93;4.60;;;;;;;10.47;100.00;95776.22;1024539;28;20085;-71
2023/05/29 01:57:27;;;;;;;10.10;4.72;;;;;;;10.45;100.00;95772.28;1030111;28;20360;-72
2023/05/29 01:57:58;;;;;;;6.57;4.45;;;;;;;10.41;100.00;95766.75;1034196;28;20132;-73
2023/05/29 01:58:28;;;;;;;6.85;4.15;;;;;;;10.48;100.00;95774.38;1029937;28;20049;-72
2023/05/29 01:58:59;;;;;;;9.85;4.65;;;;;;;10.46;100.00;95772.03;1018157;29;20036;-72
2023/05/29 01:59:30;;;;;;;6.88;4.07;;;;;;;10.47;100.00;95768.34;1025987;28;20151;-72
2023/05/29 02:00:04;;;;;;;7.63;4.78;;;;;;;10.40;100.00;95759.16;1022300;28;20779;-72
2023/05/29 02:00:35;;;;;;;13.23;5.22;;;;;;;10.47;100.00;95773.59;1022763;28;20035;-72
2023/05/29 02:01:06;;;;;;;7.70;4.57;;;;;;;10.49;100.00;95774.09;1022246;28;20342;-72
2023/05/29 02:01:38;;;;;;;12.23;5.28;;;;;;;10.49;100.00;95776.72;1026051;28;20030;-72
2023/05/29 02:02:09;;;;;;;6.68;4.22;;;;;;;10.46;100.00;95769.41;1026429;28;20887;-72
2023/05/29 02:02:40;;;;;;;10.02;4.13;;;;;;;10.51;100.00;95772.03;1030690;28;20659;-72
2023/05/29 02:03:10;;;;;;;10.73;4.28;;;;;;;10.49;100.00;95768.84;1026110;28;20041;-72
2023/05/29 02:03:41;;;;;;;9.10;4.65;;;;;;;10.49;100.00;95768.84;1026107;28;20031;-71
2023/05/29 02:04:11;;;;;;;10.13;4.25;;;;;;;10.50;100.00;95775.69;1022068;28;20038;-72
2023/05/29 02:04:41;;;;;;;7.50;4.30;;;;;;;10.51;100.00;95771.25;1022430;28;20047;-72
2023/05/29 02:05:12;;;;;;;8.02;4.53;;;;;;;10.52;100.00;95770.19;1025756;28;20053;-72
2023/05/29 02:05:42;;;;;;;10.25;4.57;;;;;;;10.52;100.00;95773.59;1026309;28;20019;-72
2023/05/29 02:06:13;;;;;;;9.02;4.45;;;;;;;10.59;100.00;95773.34;1026159;28;20030;-72
2023/05/29 02:06:43;;;;;;;8.55;4.25;;;;;;;10.56;100.00;95766.78;1026427;28;20557;-72
2023/05/29 02:07:15;;;;;;;7.32;4.03;;;;;;;10.54;100.00;95768.09;1033108;28;20022;-73
2023/05/29 02:07:46;;;;;;;7.90;4.68;;;;;;;10.56;100.00;95779.91;1030306;28;20030;-72
2023/05/29 02:08:16;;;;;;;7.70;4.22;;;;;;;10.56;100.00;95773.84;1030134;28;20281;-72
2023/05/29 02:08:47;;;;;;;6.65;4.13;;;;;;;10.53;100.00;95775.19;1026431;28;20066;-72
2023/05/29 02:09:17;;;;;;;8.00;4.57;;;;;;;10.56;100.00;95776.47;1026358;28;20038;-72
2023/05/29 02:09:48;;;;;;;6.78;4.28;;;;;;;10.56;100.00;95765.97;1030230;28;20049;-71
2023/05/29 02:10:18;;;;;;;8.68;4.35;;;;;;;10.56;100.00;95779.91;1034041;28;20037;-73
2023/05/29 02:10:49;;;;;;;7.18;4.57;;;;;;;10.53;100.00;95772.56;1038309;28;20056;-71
2023/05/29 02:11:20;;;;;;;10.35;4.55;;;;;;;10.56;100.00;95776.47;1037213;28;20111;-72
2023/05/29 02:11:50;;;;;;;9.57;4.72;;;;;;;10.54;100.00;95776.75;1034170;28;20220;-72
2023/05/29 02:12:21;;;;;;;6.28;4.15;;;;;;;10.54;100.00;95775.97;1029872;28;20767;-72
2023/05/29 02:12:51;;;;;;;8.85;4.38;;;;;;;10.55;100.00;95778.31;1030247;28;20034;-72
2023/05/29 02:13:22;;;;;;;11.20;4.43;;;;;;;10.55;100.00;95778.31;1033913;28;20034;-73
2023/05/29 02:13:52;;;;;;;11.10;5.53;;;;;;;10.53;100.00;95775.19;1034311;28;20022;-71
2023/05/29 02:14:26;;;;;;;7.10;4.22;;;;;;;10.53;100.00;95777.81;1034407;28;20391;-72
2023/05/29 02:14:56;;;;;;;9.38;4.55;;;;;;;10.51;100.00;95771.25;1030188;28;20037;-72
2023/05/29 02:15:27;;;;;;;8.88;4.20;;;;;;;10.54;100.00;95775.97;1025804;28;20811;-72
2023/05/29 02:15:57;;;;;;;8.57;4.47;;;;;;;10.52;100.00;95778.84;1026064;28;20037;-72
2023/05/29 02:16:28;;;;;;;8.45;4.43;;;;;;;10.52;100.00;95776.22;1026620;28;20038;-72
2023/05/29 02:16:58;;;;;;;10.23;4.70;;;;;;;10.51;100.00;95774.66;1034275;28;20499;-71
2023/05/29 02:17:29;;;;;;;8.10;4.75;;;;;;;10.51;100.00;95779.91;1037926;28;20029;-72
2023/05/29 02:18:00;;;;;;;7.22;4.40;;;;;;;10.52;100.00;95778.84;1038073;28;20561;-72
2023/05/29 02:18:31;;;;;;;8.63;4.60;;;;;;;10.52;100.00;95778.06;1034398;28;20041;-73
2023/05/29 02:19:02;;;;;;;8.60;4.95;;;;;;;10.52;100.00;95784.09;1034200;28;20284;-73
2023/05/29 02:19:32;;;;;;;9.35;4.88;;;;;;;10.52;100.00;95781.47;1030131;28;20032;-72
2023/05/29 02:20:06;;;;;;;7.10;4.30;;;;;;;10.52;100.00;95778.84;1030150;28;20078;-73
2023/05/29 02:20:36;;;;;;;9.07;4.65;;;;;;;10.54;100.00;95776.75;1030640;28;20033;-70
2023/05/29 02:21:07;;;;;;;8.32;4.32;;;;;;;10.52;100.00;95776.22;1034381;28;20283;-73
2023/05/29 02:21:38;;;;;;;6.93;4.35;;;;;;;10.49;100.00;95768.06;1034603;28;20089;-71
2023/05/29 02:22:08;;;;;;;8.90;4.80;;;;;;;10.53;100.00;95777.81;1029794;28;20027;-72
2023/05/29 02:22:39;;;;;;;8.90;4.97;;;;;;;10.51;100.00;95777.28;1029830;28;20098;-72
2023/05/29 02:23:09;;;;;;;9.98;4.55;;;;;;;10.50;100.00;95773.06;1030853;28;20031;-73
2023/05/29 02:23:40;;;;;;;11.20;5.78;;;;;;;10.49;100.00;95776.72;1030894;28;20070;-72
2023/05/29 02:24:10;;;;;;;8.88;4.38;;;;;;;10.48;100.00;95772.53;1026704;28;20039;-72
2023/05/29 02:24:41;;;;;;;8.38;4.78;;;;;;;10.48;100.00;95766.50;1029684;28;20234;-72
2023/05/29 02:25:11;;;;;;;7.18;4.60;;;;;;;10.47;100.00;95775.44;1035496;28;20523;-72
2023/05/29 02:25:42;;;;;;;8.43;4.68;;;;;;;10.45;100.00;95767.81;1035404;28;20034;-72
2023/05/29 02:26:13;;;;;;;8.95;4.13;;;;;;;10.44;100.00;95768.88;1035537;28;20022;-71
2023/05/29 02:26:44;;;;;;;6.72;4.10;;;;;;;10.43;100.00;95769.94;1031861;28;20022;-72
2023/05/29 02:27:14;;;;;;;10.00;4.80;;;;;;;10.40;100.00;95767.81;1031773;28;20258;-73
2023/05/29 02:27:45;;;;;;;11.13;4.78;;;;;;;10.39;100.00;95768.84;1023541;28;20027;-70